createdAt,value
2023-05-22T00:00:18.175Z,15.27
2023-05-22T00:02:45.255Z,19.15
2023-05-22T00:05:13.671Z,17.88
2023-05-22T00:07:41.895Z,18.33
2023-05-22T00:10:09.321Z,20.13
2023-05-22T00:12:36.193Z,19.10
2023-05-22T00:15:03.986Z,18.33
2023-05-22T00:17:31.062Z,17.85
2023-05-22T00:20:07.114Z,17.58
2023-05-22T00:22:37.600Z,19.43
2023-05-22T00:25:05.484Z,20.20
2023-05-22T00:27:33.143Z,18.42
2023-05-22T00:30:00.038Z,17.85
2023-05-22T00:32:27.427Z,19.90
2023-05-22T00:34:54.348Z,18.02
2023-05-22T00:37:21.182Z,18.25
2023-05-22T00:39:48.754Z,19.17
2023-05-22T00:42:15.781Z,18.10
2023-05-22T00:44:42.714Z,19.20
2023-05-22T00:47:09.704Z,18.55
2023-05-22T00:49:36.621Z,20.33
2023-05-22T00:52:03.875Z,19.42
2023-05-22T00:54:32.492Z,22.52
2023-05-22T00:57:01.428Z,19.05
2023-05-22T00:59:29.088Z,17.85
2023-05-22T01:01:57.157Z,20.45
2023-05-22T01:04:25.356Z,20.05
2023-05-22T01:06:53.682Z,20.98
2023-05-22T01:09:20.677Z,23.27
2023-05-22T01:12:00.493Z,26.10
2023-05-22T01:14:44.792Z,20.55
2023-05-22T01:17:25.957Z,19.77
2023-05-22T01:20:24.391Z,20.83
2023-05-22T01:23:14.108Z,21.65
2023-05-22T01:26:02.857Z,20.55
2023-05-22T01:29:03.924Z,20.13
2023-05-22T01:31:34.355Z,20.67
2023-05-22T01:34:03.355Z,20.15
2023-05-22T01:36:35.333Z,21.60
2023-05-22T01:39:06.173Z,21.38
2023-05-22T01:41:34.130Z,22.13
2023-05-22T01:44:02.093Z,19.33
2023-05-22T01:46:30.278Z,21.75
2023-05-22T01:48:58.224Z,23.23
2023-05-22T01:51:28.164Z,20.13
2023-05-22T01:54:07.624Z,23.70
2023-05-22T01:56:43.949Z,19.40
2023-05-22T01:59:15.694Z,23.33
2023-05-22T02:01:43.603Z,22.63
2023-05-22T02:04:12.137Z,21.05
2023-05-22T02:06:39.616Z,20.85
2023-05-22T02:09:08.619Z,21.05
2023-05-22T02:11:44.809Z,20.67
2023-05-22T02:14:13.437Z,20.20
2023-05-22T02:16:47.589Z,22.38
2023-05-22T02:19:15.435Z,22.40
2023-05-22T02:21:42.770Z,20.08
2023-05-22T02:24:09.799Z,19.10
2023-05-22T02:26:37.784Z,22.58
2023-05-22T02:29:04.854Z,21.92
2023-05-22T02:31:31.926Z,23.08
2023-05-22T02:33:59.143Z,21.05
2023-05-22T02:36:26.412Z,26.42
2023-05-22T02:38:55.614Z,23.35
2023-05-22T02:41:23.309Z,23.15
2023-05-22T02:43:50.540Z,23.50
2023-05-22T02:46:17.628Z,21.98
2023-05-22T02:48:45.510Z,25.10
2023-05-22T02:51:12.799Z,23.15
2023-05-22T02:53:44.115Z,22.35
2023-05-22T02:56:12.300Z,22.13
2023-05-22T02:58:39.803Z,22.05
2023-05-22T03:01:09.017Z,20.35
2023-05-22T03:03:36.933Z,20.05
2023-05-22T03:06:04.282Z,19.83
2023-05-22T03:08:32.927Z,22.23
2023-05-22T03:11:01.737Z,20.65
2023-05-22T03:13:28.580Z,22.20
2023-05-22T03:15:55.597Z,20.52
2023-05-22T03:18:25.941Z,20.20
2023-05-22T03:20:54.388Z,21.33
2023-05-22T03:25:48.455Z,19.50
2023-05-22T03:28:16.056Z,20.42
2023-05-22T03:30:43.483Z,27.83
2023-05-22T03:33:21.454Z,20.17
2023-05-22T03:35:48.898Z,21.17
2023-05-22T03:38:15.901Z,16.38
2023-05-22T03:40:42.833Z,18.00
2023-05-22T03:43:10.714Z,18.90
2023-05-22T03:45:38.767Z,18.95
2023-05-22T03:48:06.117Z,19.15
2023-05-22T03:50:34.768Z,18.10
2023-05-22T03:53:06.036Z,17.33
2023-05-22T03:55:33.075Z,18.50
2023-05-22T03:57:59.856Z,17.33
2023-05-22T04:00:27.177Z,18.70
2023-05-22T04:02:54.801Z,17.30
2023-05-22T04:05:24.692Z,17.75
2023-05-22T04:07:51.692Z,15.98
2023-05-22T04:10:22.461Z,16.75
2023-05-22T04:12:50.850Z,17.02
2023-05-22T04:15:17.882Z,16.50
2023-05-22T04:17:44.965Z,16.00
2023-05-22T04:20:12.288Z,18.38
2023-05-22T04:22:39.498Z,15.38
2023-05-22T04:25:06.696Z,16.80
2023-05-22T04:27:34.228Z,15.57
2023-05-22T04:30:02.923Z,15.80
2023-05-22T04:32:29.979Z,17.33
2023-05-22T04:34:58.393Z,16.35
2023-05-22T04:37:26.502Z,16.42
2023-05-22T04:39:53.724Z,18.77
2023-05-22T04:42:22.491Z,16.52
2023-05-22T04:44:49.351Z,15.85
2023-05-22T04:47:17.761Z,29.15
2023-05-22T04:49:45.708Z,18.38
2023-05-22T04:52:12.763Z,19.48
2023-05-22T04:54:56.121Z,18.40
2023-05-22T04:57:25.530Z,17.63
2023-05-22T04:59:54.461Z,16.67
2023-05-22T05:02:21.570Z,17.15
2023-05-22T05:04:48.931Z,18.08
2023-05-22T05:07:19.480Z,16.30
2023-05-22T05:09:46.809Z,14.15
2023-05-22T05:12:16.872Z,14.88
2023-05-22T05:14:46.424Z,17.50
2023-05-22T05:17:15.899Z,17.27
2023-05-22T05:19:43.322Z,17.30
2023-05-22T05:22:10.461Z,16.60
2023-05-22T05:24:38.223Z,14.38
2023-05-22T05:27:05.979Z,16.85
2023-05-22T05:29:33.093Z,15.68
2023-05-22T05:32:08.133Z,16.58
2023-05-22T05:34:47.695Z,16.33
2023-05-22T05:37:25.097Z,16.20
2023-05-22T05:39:54.753Z,16.13
2023-05-22T05:42:21.626Z,17.23
2023-05-22T05:44:49.426Z,15.43
2023-05-22T05:47:17.794Z,16.08
2023-05-22T05:49:44.837Z,16.23
2023-05-22T05:52:12.446Z,15.35
2023-05-22T05:54:39.484Z,14.23
2023-05-22T05:57:14.688Z,15.40
2023-05-22T05:59:41.618Z,14.52
2023-05-22T06:02:41.870Z,13.10
2023-05-22T06:05:20.082Z,13.70
2023-05-22T06:07:50.083Z,15.13
2023-05-22T06:10:18.617Z,13.50
2023-05-22T06:12:57.942Z,13.75
2023-05-22T06:15:28.890Z,14.20
2023-05-22T06:17:56.323Z,14.95
2023-05-22T06:20:25.094Z,16.23
2023-05-22T06:22:52.114Z,14.55
2023-05-22T06:25:20.223Z,13.00
2023-05-22T06:27:48.474Z,12.95
2023-05-22T06:30:28.205Z,16.88
2023-05-22T06:35:31.752Z,16.35
2023-05-22T06:37:59.008Z,17.52
2023-05-22T06:40:26.508Z,14.80
2023-05-22T06:42:59.297Z,13.43
2023-05-22T06:45:39.085Z,16.02
2023-05-22T06:48:26.268Z,14.07
2023-05-22T06:51:19.666Z,12.98
2023-05-22T06:53:51.432Z,14.20
2023-05-22T06:56:25.172Z,13.52
2023-05-22T06:59:00.275Z,14.10
2023-05-22T07:01:49.908Z,13.32
2023-05-22T07:04:26.131Z,14.07
2023-05-22T07:07:00.694Z,12.82
2023-05-22T07:09:28.590Z,14.05
2023-05-22T07:11:55.582Z,13.88
2023-05-22T07:14:23.068Z,15.77
2023-05-22T07:16:51.188Z,11.75
2023-05-22T07:19:24.812Z,15.90
2023-05-22T07:21:54.168Z,14.23
2023-05-22T07:24:22.152Z,12.68
2023-05-22T07:26:50.083Z,13.27
2023-05-22T07:29:18.244Z,13.77
2023-05-22T07:31:48.540Z,12.40
2023-05-22T07:34:16.622Z,13.65
2023-05-22T07:36:44.797Z,13.20
2023-05-22T07:39:11.691Z,12.55
2023-05-22T07:41:41.030Z,12.88
2023-05-22T07:44:11.124Z,12.57
2023-05-22T07:46:39.023Z,12.98
2023-05-22T07:49:12.028Z,13.15
2023-05-22T07:51:41.651Z,13.68
2023-05-22T07:54:10.171Z,12.98
2023-05-22T07:56:43.390Z,11.50
2023-05-22T07:59:12.088Z,14.20
2023-05-22T08:01:40.209Z,11.85
2023-05-22T08:04:07.637Z,11.65
2023-05-22T08:06:37.740Z,14.88
2023-05-22T08:09:05.072Z,14.10
2023-05-22T08:11:32.682Z,12.00
2023-05-22T08:13:59.533Z,12.60
2023-05-22T08:16:26.429Z,12.65
2023-05-22T08:18:53.390Z,10.00
2023-05-22T08:21:20.328Z,10.50
2023-05-22T08:23:47.189Z,11.40
2023-05-22T08:26:15.183Z,12.48
2023-05-22T08:28:44.236Z,11.55
2023-05-22T08:31:11.949Z,11.85
2023-05-22T08:33:39.834Z,11.80
2023-05-22T08:36:06.832Z,11.20
2023-05-22T08:38:34.107Z,11.60
2023-05-22T08:41:01.138Z,11.07
2023-05-22T08:43:28.684Z,12.38
2023-05-22T08:46:06.190Z,10.77
2023-05-22T08:48:33.584Z,10.07
2023-05-22T08:51:06.001Z,11.32
2023-05-22T08:53:36.938Z,10.48
2023-05-22T08:56:07.023Z,10.05
2023-05-22T08:58:35.952Z,9.75
2023-05-22T09:01:04.875Z,10.30
2023-05-22T09:03:35.191Z,9.68
2023-05-22T09:06:03.280Z,13.07
2023-05-22T09:08:30.130Z,10.55
2023-05-22T09:10:57.108Z,10.35
2023-05-22T09:13:29.274Z,12.10
2023-05-22T09:16:14.909Z,12.13
2023-05-22T09:18:45.328Z,10.80
2023-05-22T09:21:29.717Z,10.50
2023-05-22T09:24:01.472Z,11.23
2023-05-22T09:26:29.563Z,10.25
2023-05-22T09:28:58.919Z,11.00
2023-05-22T09:31:26.150Z,10.13
2023-05-22T09:33:54.976Z,9.68
2023-05-22T09:36:22.154Z,9.48
2023-05-22T09:38:49.177Z,11.27
2023-05-22T09:41:22.514Z,11.43
2023-05-22T09:43:52.526Z,12.40
2023-05-22T09:46:19.566Z,11.40
2023-05-22T09:48:52.442Z,10.80
2023-05-22T09:51:26.623Z,12.93
2023-05-22T09:54:01.456Z,11.52
2023-05-22T09:56:38.592Z,11.18
2023-05-22T09:59:09.618Z,12.48
2023-05-22T10:01:38.665Z,13.07
2023-05-22T10:04:08.829Z,14.10
2023-05-22T10:06:37.783Z,15.82
2023-05-22T10:09:09.778Z,14.63
2023-05-22T10:11:37.964Z,14.20
2023-05-22T10:14:05.568Z,13.77
2023-05-22T10:16:36.394Z,15.98
2023-05-22T10:19:03.611Z,14.30
2023-05-22T10:21:32.034Z,13.48
2023-05-22T10:24:01.799Z,14.07
2023-05-22T10:26:29.188Z,14.85
2023-05-22T10:29:17.987Z,11.30
2023-05-22T10:32:09.404Z,13.63
2023-05-22T10:35:21.241Z,14.27
2023-05-22T10:37:54.879Z,12.65
2023-05-22T10:40:29.207Z,12.82
2023-05-22T10:43:00.890Z,14.63
2023-05-22T10:45:31.981Z,13.05
2023-05-22T10:48:06.653Z,14.25
2023-05-22T10:50:34.613Z,15.65
2023-05-22T10:53:24.664Z,15.52
2023-05-22T10:55:52.219Z,12.75
2023-05-22T10:58:37.348Z,14.57
2023-05-22T11:01:18.297Z,15.40
2023-05-22T11:03:51.060Z,16.02
2023-05-22T11:06:33.420Z,14.05
2023-05-22T11:09:06.993Z,14.23
2023-05-22T11:11:33.986Z,11.80
2023-05-22T11:14:04.448Z,12.45
2023-05-22T11:16:33.542Z,14.82
2023-05-22T11:19:21.861Z,12.77
2023-05-22T11:21:49.982Z,12.68
2023-05-22T11:24:20.624Z,13.45
2023-05-22T11:27:02.457Z,13.25
2023-05-22T11:29:30.684Z,12.65
2023-05-22T11:31:59.329Z,12.98
2023-05-22T11:34:26.858Z,13.85
2023-05-22T11:36:59.793Z,12.85
2023-05-22T11:39:27.336Z,12.93
2023-05-22T11:41:54.649Z,12.95
2023-05-22T11:44:21.764Z,13.13
2023-05-22T11:46:48.838Z,11.38
2023-05-22T11:49:17.287Z,12.82
2023-05-22T11:51:45.290Z,13.95
2023-05-22T11:54:12.266Z,11.82
2023-05-22T11:56:39.221Z,12.85
2023-05-22T11:59:06.123Z,13.50
2023-05-22T12:01:33.327Z,13.45
2023-05-22T12:04:00.309Z,13.15
2023-05-22T12:06:27.508Z,12.60
2023-05-22T12:09:12.093Z,12.95
2023-05-22T12:11:55.761Z,12.48
2023-05-22T12:14:34.151Z,14.70
2023-05-22T12:17:04.465Z,12.85
2023-05-22T12:19:32.764Z,11.82
2023-05-22T12:22:00.435Z,14.05
2023-05-22T12:24:38.483Z,13.20
2023-05-22T12:27:09.719Z,11.95
2023-05-22T12:29:38.436Z,13.20
2023-05-22T12:32:09.172Z,12.65
2023-05-22T12:34:43.078Z,14.18
2023-05-22T12:37:21.158Z,12.93
2023-05-22T12:40:06.126Z,11.65
2023-05-22T12:42:33.078Z,11.40
2023-05-22T12:45:00.673Z,12.73
2023-05-22T12:47:28.150Z,11.90
2023-05-22T12:50:01.367Z,10.80
2023-05-22T12:52:28.409Z,11.63
2023-05-22T12:54:55.558Z,12.48
2023-05-22T12:57:22.513Z,11.60
2023-05-22T12:59:49.515Z,12.40
2023-05-22T13:02:18.610Z,13.65
2023-05-22T13:04:49.721Z,11.55
2023-05-22T13:07:16.716Z,12.80
2023-05-22T13:09:45.173Z,12.27
2023-05-22T13:12:12.284Z,11.85
2023-05-22T13:14:40.543Z,12.85
2023-05-22T13:17:08.223Z,12.93
2023-05-22T13:19:35.309Z,11.27
2023-05-22T13:22:02.280Z,13.80
2023-05-22T13:24:30.426Z,13.45
2023-05-22T13:26:57.393Z,11.75
2023-05-22T13:29:24.741Z,12.32
2023-05-22T13:31:51.736Z,13.50
2023-05-22T13:34:18.752Z,12.50
2023-05-22T13:36:46.644Z,11.23
2023-05-22T13:39:13.567Z,12.90
2023-05-22T13:41:40.748Z,12.82
2023-05-22T13:44:07.889Z,13.15
2023-05-22T13:46:34.991Z,13.07
2023-05-22T13:49:02.111Z,11.60
2023-05-22T13:51:29.262Z,11.55
2023-05-22T13:53:56.136Z,11.27
2023-05-22T13:56:23.765Z,11.43
2023-05-22T13:58:50.790Z,12.07
2023-05-22T14:01:17.758Z,11.02
2023-05-22T14:03:44.736Z,11.10
2023-05-22T14:06:11.702Z,11.93
2023-05-22T14:08:38.896Z,12.10
2023-05-22T14:11:06.075Z,11.10
2023-05-22T14:13:33.120Z,11.15
2023-05-22T14:16:00.198Z,11.10
2023-05-22T14:18:27.167Z,11.15
2023-05-22T14:20:54.235Z,10.55
2023-05-22T14:23:21.303Z,9.65
2023-05-22T14:25:48.308Z,10.50
2023-05-22T14:28:16.013Z,8.65
2023-05-22T14:30:43.022Z,9.25
2023-05-22T14:33:09.940Z,9.73
2023-05-22T14:35:36.850Z,9.30
2023-05-22T14:38:04.007Z,11.23
2023-05-22T14:40:30.978Z,10.18
2023-05-22T14:42:57.947Z,9.98
2023-05-22T14:45:24.936Z,9.38
2023-05-22T14:47:53.816Z,10.68
2023-05-22T14:50:21.125Z,8.57
2023-05-22T14:52:51.634Z,9.75
2023-05-22T14:55:19.380Z,9.68
2023-05-22T14:57:49.158Z,9.13
2023-05-22T15:00:19.431Z,8.88
2023-05-22T15:02:46.727Z,8.77
2023-05-22T15:05:13.982Z,9.00
2023-05-22T15:07:44.407Z,8.18
2023-05-22T15:10:13.493Z,8.75
2023-05-22T15:12:40.764Z,7.95
2023-05-22T15:15:08.290Z,10.30
2023-05-22T15:17:35.632Z,10.27
2023-05-22T15:20:12.992Z,12.25
2023-05-22T15:22:40.575Z,9.95
2023-05-22T15:25:09.677Z,11.13
2023-05-22T15:27:38.541Z,11.82
2023-05-22T15:30:09.541Z,11.45
2023-05-22T15:32:38.055Z,10.68
2023-05-22T15:35:06.875Z,12.85
2023-05-22T15:37:34.178Z,11.23
2023-05-22T15:40:02.395Z,11.88
2023-05-22T15:42:30.547Z,10.88
2023-05-22T15:44:59.555Z,11.95
2023-05-22T15:47:27.297Z,10.65
2023-05-22T15:49:55.404Z,10.88
2023-05-22T15:52:25.403Z,10.55
2023-05-22T15:54:53.971Z,11.15
2023-05-22T15:57:23.255Z,11.45
2023-05-22T15:59:51.164Z,11.07
2023-05-22T16:02:19.009Z,9.38
2023-05-22T16:04:46.139Z,9.18
2023-05-22T16:07:12.973Z,9.48
2023-05-22T16:09:40.486Z,12.75
2023-05-22T16:12:07.909Z,9.57
2023-05-22T16:14:35.110Z,9.60
2023-05-22T16:17:01.940Z,12.73
2023-05-22T16:19:28.845Z,11.35
2023-05-22T16:21:55.926Z,10.15
2023-05-22T16:24:22.739Z,11.90
2023-05-22T16:26:49.682Z,11.00
2023-05-22T16:29:23.437Z,8.60
2023-05-22T16:31:54.122Z,12.52
2023-05-22T16:34:24.419Z,13.30
2023-05-22T16:36:51.957Z,13.80
2023-05-22T16:39:24.818Z,13.52
2023-05-22T16:42:02.835Z,13.65
2023-05-22T16:44:36.164Z,11.15
2023-05-22T16:47:11.614Z,11.93
2023-05-22T16:49:56.181Z,14.10
2023-05-22T16:52:32.675Z,11.52
2023-05-22T16:55:27.185Z,16.17
2023-05-22T16:58:06.328Z,16.83
2023-05-22T17:00:35.912Z,19.90
2023-05-22T17:03:04.197Z,16.95
2023-05-22T17:05:31.667Z,15.98
2023-05-22T17:08:03.409Z,15.45
2023-05-22T17:10:35.120Z,17.38
2023-05-22T17:13:02.102Z,18.30
2023-05-22T17:15:29.195Z,16.73
2023-05-22T17:17:56.319Z,16.60
2023-05-22T17:20:23.374Z,15.98
2023-05-22T17:22:51.015Z,15.20
2023-05-22T17:25:17.833Z,17.45
2023-05-22T17:27:44.876Z,16.27
2023-05-22T17:30:11.965Z,18.95
2023-05-22T17:32:39.015Z,19.00
2023-05-22T17:35:06.924Z,15.73
2023-05-22T17:37:40.669Z,18.25
2023-05-22T17:40:11.212Z,21.98
2023-05-22T17:42:38.370Z,19.85
2023-05-22T17:45:06.070Z,22.38
2023-05-22T17:47:33.140Z,21.92
2023-05-22T17:50:00.693Z,19.33
2023-05-22T17:52:31.264Z,21.80
2023-05-22T17:55:01.707Z,22.65
2023-05-22T17:57:28.765Z,21.83
2023-05-22T17:59:55.574Z,19.27
2023-05-22T18:02:23.101Z,20.42
2023-05-22T18:04:49.978Z,20.63
2023-05-22T18:07:17.442Z,18.02
2023-05-22T18:09:44.281Z,16.30
2023-05-22T18:12:30.240Z,17.23
2023-05-22T18:14:57.747Z,18.17
2023-05-22T18:17:24.635Z,16.98
2023-05-22T18:19:51.545Z,15.77
2023-05-22T18:22:18.677Z,12.82
2023-05-22T18:24:45.542Z,13.80
2023-05-22T18:27:12.480Z,15.95
2023-05-22T18:29:40.157Z,12.15
2023-05-22T18:32:09.467Z,15.93
2023-05-22T18:34:37.808Z,11.43
2023-05-22T18:37:08.039Z,12.38
2023-05-22T18:39:35.935Z,11.57
2023-05-22T18:42:05.829Z,9.88
2023-05-22T18:44:32.718Z,12.05
2023-05-22T18:46:59.742Z,10.23
2023-05-22T18:49:27.170Z,9.18
2023-05-22T18:51:57.071Z,13.50
2023-05-22T18:54:31.992Z,13.30
2023-05-22T18:57:02.202Z,10.25
2023-05-22T18:59:29.186Z,13.85
2023-05-22T19:02:01.417Z,14.25
2023-05-22T19:04:35.391Z,11.60
2023-05-22T19:07:09.689Z,13.30
2023-05-22T19:09:39.755Z,12.55
2023-05-22T19:12:16.001Z,14.50
2023-05-22T19:14:43.455Z,16.27
2023-05-22T19:17:11.103Z,23.30
2023-05-22T19:19:40.839Z,20.33
2023-05-22T19:22:10.440Z,21.02
2023-05-22T19:24:37.414Z,19.70
2023-05-22T19:27:12.451Z,21.13
2023-05-22T19:29:42.317Z,19.15
2023-05-22T19:32:09.404Z,18.60
2023-05-22T19:34:37.832Z,18.48
2023-05-22T19:37:05.554Z,22.38
2023-05-22T19:39:32.565Z,19.02
2023-05-22T19:42:08.629Z,20.30
2023-05-22T19:44:37.967Z,20.73
2023-05-22T19:47:08.908Z,19.50
2023-05-22T19:49:44.306Z,17.98
2023-05-22T19:52:12.003Z,23.02
2023-05-22T19:54:41.800Z,16.58
2023-05-22T19:57:15.220Z,19.77
2023-05-22T19:59:59.771Z,17.95
2023-05-22T20:02:38.078Z,20.35
2023-05-22T20:05:18.342Z,20.08
2023-05-22T20:07:54.196Z,23.98
2023-05-22T20:10:21.758Z,21.58
2023-05-22T20:12:48.902Z,24.08
2023-05-22T20:15:18.591Z,23.27
2023-05-22T20:17:52.078Z,22.73
2023-05-22T20:20:20.250Z,21.75
2023-05-22T20:22:47.547Z,22.88
2023-05-22T20:25:14.860Z,24.33
2023-05-22T20:27:41.888Z,26.77
2023-05-22T20:30:16.795Z,33.22
2023-05-22T20:32:48.267Z,35.13
2023-05-22T20:35:22.394Z,36.33
2023-05-22T20:37:50.649Z,39.17
2023-05-22T20:40:18.621Z,36.70
2023-05-22T20:42:46.504Z,35.75
2023-05-22T20:45:17.987Z,41.45
2023-05-22T20:47:48.177Z,43.60
2023-05-22T20:50:18.752Z,43.65
2023-05-22T20:52:48.084Z,48.92
2023-05-22T20:55:30.051Z,52.33
2023-05-22T20:58:00.288Z,55.38
2023-05-22T21:00:30.143Z,52.80
2023-05-22T21:03:00.203Z,53.67
2023-05-22T21:05:27.712Z,52.38
2023-05-22T21:07:55.748Z,57.63
2023-05-22T21:10:29.047Z,51.00
2023-05-22T21:12:56.298Z,49.75
2023-05-22T21:15:26.802Z,54.80
2023-05-22T21:17:56.961Z,59.60
2023-05-22T21:20:27.567Z,58.33
2023-05-22T21:22:55.879Z,57.45
2023-05-22T21:25:43.596Z,58.20
2023-05-22T21:30:38.771Z,60.63
2023-05-22T21:33:06.106Z,53.42
2023-05-22T21:35:34.136Z,52.65
2023-05-22T21:38:04.451Z,46.20
2023-05-22T21:40:31.975Z,48.92
2023-05-22T21:43:00.335Z,45.42
2023-05-22T21:45:28.186Z,44.35
2023-05-22T21:48:02.207Z,47.13
2023-05-22T21:50:30.630Z,55.80
2023-05-22T21:52:59.113Z,55.17
2023-05-22T21:55:27.253Z,57.95
2023-05-22T21:57:59.050Z,63.78
2023-05-22T22:00:30.965Z,64.30
2023-05-22T22:02:59.121Z,68.63
2023-05-22T22:05:27.578Z,61.90
2023-05-22T22:07:54.493Z,61.50
2023-05-22T22:10:21.450Z,58.22
2023-05-22T22:12:48.703Z,61.45
2023-05-22T22:15:17.100Z,64.30
2023-05-22T22:17:44.033Z,54.63
2023-05-22T22:20:11.506Z,57.78
2023-05-22T22:22:39.892Z,58.10
2023-05-22T22:25:07.050Z,57.92
2023-05-22T22:27:33.916Z,68.28
2023-05-22T22:30:00.713Z,63.42
2023-05-22T22:32:27.490Z,65.68
2023-05-22T22:34:55.218Z,58.90
2023-05-22T22:37:22.341Z,64.82
2023-05-22T22:39:49.511Z,61.53
2023-05-22T22:42:16.694Z,55.60
2023-05-22T22:44:44.353Z,61.58
2023-05-22T22:47:11.360Z,61.58
2023-05-22T22:49:38.445Z,62.70
2023-05-22T22:52:05.649Z,61.30
2023-05-22T22:54:32.762Z,61.47
2023-05-22T22:56:59.957Z,67.15
2023-05-22T22:59:26.758Z,66.05
2023-05-22T23:01:53.987Z,58.63
2023-05-22T23:04:21.223Z,64.30
2023-05-22T23:06:48.421Z,57.97
2023-05-22T23:09:15.662Z,71.03
2023-05-22T23:11:42.654Z,61.83
2023-05-22T23:14:10.157Z,69.57
2023-05-22T23:16:40.742Z,62.78
2023-05-22T23:19:09.060Z,63.83
2023-05-22T23:21:36.764Z,62.90
2023-05-22T23:24:05.875Z,68.07
2023-05-22T23:26:33.427Z,67.97
2023-05-22T23:29:01.059Z,63.55
2023-05-22T23:31:30.508Z,59.95
2023-05-22T23:33:58.485Z,62.55
2023-05-22T23:36:25.910Z,59.47
2023-05-22T23:38:53.917Z,61.70
2023-05-22T23:41:20.691Z,61.30
2023-05-22T23:43:47.551Z,60.65
2023-05-22T23:46:14.861Z,64.63
2023-05-22T23:48:42.568Z,67.15
2023-05-22T23:51:16.717Z,57.95
2023-05-22T23:53:44.770Z,55.03
2023-05-22T23:56:11.692Z,63.42
2023-05-22T23:58:38.723Z,59.38
